createdAt,value
2019-05-16T00:00:22.306Z,7.74
2019-05-16T00:02:50.975Z,7.71
2019-05-16T00:05:20.158Z,7.59
2019-05-16T00:07:49.338Z,7.51
2019-05-16T00:10:18.717Z,7.67
2019-05-16T00:12:48.605Z,7.70
2019-05-16T00:15:18.302Z,7.41
2019-05-16T00:17:48.796Z,7.46
2019-05-16T00:20:19.105Z,7.70
2019-05-16T00:22:48.589Z,7.52
2019-05-16T00:25:18.006Z,7.55
2019-05-16T00:27:47.980Z,7.59
2019-05-16T00:30:18.150Z,7.59
2019-05-16T00:32:48.173Z,7.53
2019-05-16T00:35:18.278Z,7.53
2019-05-16T00:37:48.367Z,7.59
2019-05-16T00:40:18.803Z,7.37
2019-05-16T00:42:49.270Z,7.31
2019-05-16T00:45:18.661Z,7.26
2019-05-16T00:47:48.069Z,7.39
2019-05-16T00:50:18.383Z,7.41
2019-05-16T00:52:48.709Z,7.41
2019-05-16T00:55:18.073Z,7.38
2019-05-16T00:57:48.253Z,7.49
2019-05-16T01:00:18.510Z,7.47
2019-05-16T01:02:48.559Z,7.29
2019-05-16T01:05:19.116Z,7.10
2019-05-16T01:07:48.179Z,7.27
2019-05-16T01:10:18.341Z,7.02
2019-05-16T01:12:48.058Z,7.30
2019-05-16T01:15:18.351Z,7.30
2019-05-16T01:17:48.452Z,7.37
2019-05-16T01:20:19.205Z,7.16
2019-05-16T01:22:49.069Z,7.16
2019-05-16T01:25:19.528Z,7.10
2019-05-16T01:27:48.346Z,7.21
2019-05-16T01:30:18.630Z,7.27
2019-05-16T01:32:49.152Z,7.36
2019-05-16T01:35:18.877Z,7.33
2019-05-16T01:37:48.928Z,7.45
2019-05-16T01:40:18.897Z,7.46
2019-05-16T01:42:49.014Z,7.33
2019-05-16T01:45:18.872Z,7.41
2019-05-16T01:47:48.199Z,7.46
2019-05-16T01:50:18.116Z,7.39
2019-05-16T01:52:48.722Z,7.51
2019-05-16T01:55:18.706Z,7.52
2019-05-16T01:57:48.220Z,7.49
2019-05-16T02:00:23.587Z,7.51
2019-05-16T02:02:48.810Z,7.47
2019-05-16T02:05:18.786Z,7.49
2019-05-16T02:07:48.195Z,7.44
2019-05-16T02:10:18.086Z,7.50
2019-05-16T02:12:49.029Z,7.45
2019-05-16T02:15:18.205Z,7.47
2019-05-16T02:17:48.575Z,7.52
2019-05-16T02:20:18.161Z,7.48
2019-05-16T02:22:48.166Z,7.51
2019-05-16T02:25:18.509Z,7.44
2019-05-16T02:27:48.842Z,7.51
2019-05-16T02:30:21.320Z,7.47
2019-05-16T02:32:51.891Z,7.56
2019-05-16T02:35:21.046Z,7.52
2019-05-16T02:37:54.706Z,7.52
2019-05-16T02:40:22.323Z,7.50
2019-05-16T02:42:51.628Z,7.62
2019-05-16T02:45:24.468Z,7.62
2019-05-16T02:47:51.734Z,7.59
2019-05-16T02:50:22.341Z,7.66
2019-05-16T02:52:51.775Z,7.60
2019-05-16T02:55:21.624Z,7.56
2019-05-16T02:57:51.029Z,7.51
2019-05-16T03:00:22.733Z,7.61
2019-05-16T03:02:51.586Z,7.67
2019-05-16T03:05:20.969Z,7.71
2019-05-16T03:07:52.069Z,7.76
2019-05-16T03:10:20.533Z,7.75
2019-05-16T03:12:52.074Z,7.73
2019-05-16T03:15:21.843Z,7.77
2019-05-16T03:17:53.006Z,7.68
2019-05-16T03:20:25.079Z,7.66
2019-05-16T03:22:55.118Z,7.76
2019-05-16T03:25:23.689Z,7.77
2019-05-16T03:27:52.403Z,7.79
2019-05-16T03:30:23.565Z,7.87
2019-05-16T03:32:54.764Z,7.87
2019-05-16T03:35:24.513Z,7.88
2019-05-16T03:37:59.635Z,8.01
2019-05-16T03:40:25.235Z,7.99
2019-05-16T03:42:54.321Z,7.90
2019-05-16T03:45:23.058Z,7.89
2019-05-16T03:47:51.851Z,7.93
2019-05-16T03:50:21.840Z,7.82
2019-05-16T03:52:51.063Z,7.95
2019-05-16T03:55:21.376Z,7.91
2019-05-16T03:57:51.644Z,7.99
2019-05-16T04:00:23.420Z,8.00
2019-05-16T04:02:52.439Z,8.09
2019-05-16T04:05:21.488Z,8.09
2019-05-16T04:07:53.119Z,8.09
2019-05-16T04:10:21.655Z,8.12
2019-05-16T04:12:51.334Z,8.13
2019-05-16T04:15:21.445Z,8.14
2019-05-16T04:17:51.246Z,8.14
2019-05-16T04:20:21.517Z,8.14
2019-05-16T04:22:51.332Z,8.19
2019-05-16T04:25:21.699Z,8.11
2019-05-16T04:27:50.477Z,8.10
2019-05-16T04:30:21.949Z,8.13
2019-05-16T04:32:51.008Z,8.17
2019-05-16T04:35:21.506Z,8.24
2019-05-16T04:37:51.338Z,8.29
2019-05-16T04:40:21.902Z,8.36
2019-05-16T04:42:51.345Z,8.26
2019-05-16T04:45:21.076Z,8.33
2019-05-16T04:47:52.541Z,8.23
2019-05-16T04:50:21.737Z,8.22
2019-05-16T04:52:51.789Z,8.34
2019-05-16T04:55:42.254Z,8.20
2019-05-16T04:58:11.454Z,8.35
2019-05-16T05:00:42.287Z,8.31
2019-05-16T05:03:12.163Z,8.33
2019-05-16T05:05:41.482Z,8.39
2019-05-16T05:08:11.049Z,8.46
2019-05-16T05:10:40.642Z,8.42
2019-05-16T05:13:11.019Z,8.51
2019-05-16T05:15:40.247Z,8.51
2019-05-16T05:18:10.134Z,8.58
2019-05-16T05:20:41.024Z,8.51
2019-05-16T05:23:09.880Z,8.43
2019-05-16T05:25:40.465Z,8.58
2019-05-16T05:28:10.026Z,8.65
2019-05-16T05:30:40.791Z,8.63
2019-05-16T05:33:10.131Z,8.74
2019-05-16T05:35:40.835Z,8.68
2019-05-16T05:38:10.519Z,8.83
2019-05-16T05:40:40.442Z,8.85
2019-05-16T05:43:10.600Z,8.89
2019-05-16T05:45:40.174Z,8.96
2019-05-16T05:48:10.689Z,9.06
2019-05-16T05:50:40.157Z,9.07
2019-05-16T05:53:10.198Z,9.10
2019-05-16T05:55:40.526Z,9.15
2019-05-16T05:58:10.073Z,9.11
2019-05-16T06:00:40.567Z,9.26
2019-05-16T06:03:10.705Z,9.32
2019-05-16T06:05:41.264Z,9.29
2019-05-16T06:08:10.652Z,9.25
2019-05-16T06:10:40.552Z,9.33
2019-05-16T06:13:11.077Z,9.26
2019-05-16T06:15:40.043Z,9.19
2019-05-16T06:18:10.798Z,9.35
2019-05-16T06:20:40.111Z,9.45
2019-05-16T06:23:10.606Z,9.42
2019-05-16T06:25:40.543Z,9.49
2019-05-16T06:28:10.573Z,9.44
2019-05-16T06:30:40.699Z,9.47
2019-05-16T06:33:10.217Z,9.43
2019-05-16T06:35:40.212Z,9.35
2019-05-16T06:38:09.991Z,9.48
2019-05-16T06:40:40.187Z,9.51
2019-05-16T06:43:10.934Z,9.37
2019-05-16T06:45:40.216Z,9.32
2019-05-16T06:48:10.044Z,9.48
2019-05-16T06:50:40.217Z,9.47
2019-05-16T06:53:10.437Z,9.43
2019-05-16T06:55:40.119Z,9.30
2019-05-16T06:58:10.607Z,9.43
2019-05-16T07:00:40.632Z,9.43
2019-05-16T07:03:12.430Z,9.48
2019-05-16T07:05:40.641Z,9.42
2019-05-16T07:08:10.421Z,9.46
2019-05-16T07:10:39.789Z,9.48
2019-05-16T07:13:10.345Z,9.53
2019-05-16T07:15:40.187Z,9.54
2019-05-16T07:18:12.954Z,9.72
2019-05-16T07:20:40.017Z,9.57
2019-05-16T07:23:10.120Z,9.68
2019-05-16T07:25:40.707Z,9.80
2019-05-16T07:28:10.250Z,9.78
2019-05-16T07:30:40.787Z,9.78
2019-05-16T07:33:09.889Z,9.76
2019-05-16T07:35:40.140Z,9.82
2019-05-16T07:38:10.714Z,9.71
2019-05-16T07:40:40.109Z,9.66
2019-05-16T07:43:10.705Z,9.68
2019-05-16T07:45:40.743Z,9.79
2019-05-16T07:48:10.754Z,9.63
2019-05-16T07:50:40.504Z,9.57
2019-05-16T07:53:10.625Z,9.66
2019-05-16T07:55:40.041Z,9.67
2019-05-16T07:58:10.251Z,9.55
2019-05-16T08:00:51.988Z,9.72
2019-05-16T08:03:10.543Z,9.62
2019-05-16T08:05:41.230Z,9.60
2019-05-16T08:08:10.607Z,9.73
2019-05-16T08:10:45.601Z,9.51
2019-05-16T08:13:12.153Z,9.53
2019-05-16T08:15:40.757Z,9.58
2019-05-16T08:18:11.042Z,9.72
2019-05-16T08:20:41.731Z,9.67
2019-05-16T08:23:11.197Z,9.63
2019-05-16T08:25:41.272Z,9.63
2019-05-16T08:28:11.708Z,9.53
2019-05-16T08:33:13.615Z,9.59
2019-05-16T08:35:41.677Z,9.55
2019-05-16T08:38:13.570Z,9.68
2019-05-16T08:41:04.689Z,9.73
2019-05-16T08:43:11.966Z,9.72
2019-05-16T08:45:41.842Z,9.65
2019-05-16T08:48:11.527Z,9.61
2019-05-16T08:50:42.106Z,9.47
2019-05-16T08:53:12.913Z,9.57
2019-05-16T08:55:43.359Z,9.76
2019-05-16T09:00:42.450Z,9.73
2019-05-16T09:03:12.372Z,9.83
2019-05-16T09:05:42.829Z,9.89
2019-05-16T09:08:11.801Z,9.87
2019-05-16T09:10:34.678Z,9.43
2019-05-16T09:10:40.529Z,9.78
2019-05-16T09:10:51.473Z,9.93
2019-05-16T09:13:11.186Z,10.00
2019-05-16T09:15:39.897Z,10.10
2019-05-16T09:18:08.613Z,9.83
2019-05-16T09:20:40.305Z,9.81
2019-05-16T09:23:07.874Z,9.87
2019-05-16T09:25:36.947Z,9.83
2019-05-16T09:28:07.438Z,9.88
2019-05-16T09:30:37.088Z,9.91
2019-05-16T09:33:07.087Z,9.82
2019-05-16T09:35:37.447Z,9.75
2019-05-16T09:38:08.939Z,9.72
2019-05-16T09:40:38.889Z,9.81
2019-05-16T09:43:07.987Z,9.88
2019-05-16T09:45:38.002Z,10.01
2019-05-16T09:48:08.113Z,10.08
2019-05-16T09:50:37.919Z,10.11
2019-05-16T09:53:07.217Z,10.09
2019-05-16T09:55:37.501Z,10.00
2019-05-16T09:58:08.986Z,10.15
2019-05-16T10:00:37.834Z,10.13
2019-05-16T10:03:07.227Z,10.23
2019-05-16T10:05:38.750Z,10.40
2019-05-16T10:08:07.569Z,10.32
2019-05-16T10:10:39.029Z,10.79
2019-05-16T10:13:08.053Z,10.99
2019-05-16T10:15:37.713Z,10.95
2019-05-16T10:18:07.567Z,11.09
2019-05-16T10:20:36.751Z,11.27
2019-05-16T10:23:14.388Z,11.30
2019-05-16T10:25:38.792Z,11.54
2019-05-16T10:28:07.816Z,11.60
2019-05-16T10:30:37.657Z,11.39
2019-05-16T10:33:07.195Z,11.51
2019-05-16T10:35:37.575Z,11.48
2019-05-16T10:38:09.228Z,11.41
2019-05-16T10:40:37.943Z,11.28
2019-05-16T10:43:07.473Z,11.30
2019-05-16T10:45:39.197Z,11.24
2019-05-16T10:48:07.972Z,11.20
2019-05-16T10:50:37.065Z,11.06
2019-05-16T10:53:25.785Z,11.08
2019-05-16T10:55:39.345Z,11.02
2019-05-16T10:58:08.164Z,11.16
2019-05-16T11:01:05.211Z,11.18
2019-05-16T11:03:07.327Z,11.31
2019-05-16T11:05:39.593Z,11.27
2019-05-16T11:08:08.903Z,11.27
2019-05-16T11:10:37.703Z,11.34
2019-05-16T11:13:08.160Z,11.30
2019-05-16T11:15:37.471Z,11.15
2019-05-16T11:18:09.355Z,11.17
2019-05-16T11:20:38.030Z,11.27
2019-05-16T11:23:08.007Z,11.38
2019-05-16T11:25:36.886Z,11.48
2019-05-16T11:28:07.364Z,11.47
2019-05-16T11:30:39.117Z,11.63
2019-05-16T11:33:07.850Z,11.83
2019-05-16T11:35:38.066Z,12.04
2019-05-16T11:38:07.485Z,12.17
2019-05-16T11:40:36.358Z,11.98
2019-05-16T11:43:15.712Z,12.00
2019-05-16T11:45:36.964Z,11.97
2019-05-16T11:48:05.683Z,11.90
2019-05-16T11:50:37.073Z,11.95
2019-05-16T11:53:07.227Z,11.91
2019-05-16T11:55:50.514Z,11.79
2019-05-16T11:58:08.534Z,11.86
2019-05-16T12:00:37.453Z,11.74
2019-05-16T12:03:09.356Z,11.85
2019-05-16T12:05:38.007Z,11.88
2019-05-16T12:08:07.732Z,11.97
2019-05-16T12:10:36.715Z,12.01
2019-05-16T12:13:23.756Z,11.95
2019-05-16T12:15:39.288Z,11.90
2019-05-16T12:18:08.710Z,11.99
2019-05-16T12:20:37.548Z,12.05
2019-05-16T12:23:09.249Z,12.00
2019-05-16T12:25:37.942Z,12.01
2019-05-16T12:28:08.195Z,11.90
2019-05-16T12:30:40.106Z,11.95
2019-05-16T12:33:07.492Z,11.89
2019-05-16T12:35:39.350Z,11.85
2019-05-16T12:38:08.443Z,11.89
2019-05-16T12:40:37.740Z,11.84
2019-05-16T12:43:07.732Z,11.88
2019-05-16T12:45:38.676Z,11.71
2019-05-16T12:48:07.255Z,11.75
2019-05-16T12:50:38.878Z,11.74
2019-05-16T12:53:08.283Z,11.81
2019-05-16T12:55:37.501Z,11.78
2019-05-16T12:58:13.241Z,11.82
2019-05-16T13:00:44.117Z,11.95
2019-05-16T13:03:09.787Z,11.89
2019-05-16T13:05:38.507Z,11.71
2019-05-16T13:08:07.519Z,11.88
2019-05-16T13:10:39.122Z,11.96
2019-05-16T13:13:08.006Z,11.90
2019-05-16T13:15:37.940Z,11.77
2019-05-16T13:18:08.145Z,11.84
2019-05-16T13:20:39.313Z,11.90
2019-05-16T13:23:14.550Z,11.70
2019-05-16T13:25:37.859Z,11.76
2019-05-16T13:28:08.166Z,11.87
2019-05-16T13:30:37.768Z,11.97
2019-05-16T13:33:07.195Z,12.06
2019-05-16T13:35:39.144Z,12.07
2019-05-16T13:38:08.132Z,12.07
2019-05-16T13:40:37.528Z,12.08
2019-05-16T13:43:10.425Z,12.00
2019-05-16T13:45:39.337Z,12.09
2019-05-16T13:48:08.384Z,12.17
2019-05-16T13:50:39.647Z,12.16
2019-05-16T13:53:07.992Z,12.03
2019-05-16T13:55:37.751Z,12.18
2019-05-16T13:58:07.757Z,12.30
2019-05-16T14:00:37.600Z,12.37
2019-05-16T14:03:07.344Z,12.15
2019-05-16T14:05:39.808Z,12.25
2019-05-16T14:08:08.456Z,12.25
2019-05-16T14:10:37.735Z,12.23
2019-05-16T14:13:07.491Z,11.99
2019-05-16T14:15:37.097Z,12.12
2019-05-16T14:18:07.807Z,12.12
2019-05-16T14:20:39.368Z,12.25
2019-05-16T14:23:08.812Z,12.19
2019-05-16T14:25:38.376Z,12.05
2019-05-16T14:28:07.873Z,12.12
2019-05-16T14:30:37.384Z,12.15
2019-05-16T14:33:13.896Z,12.27
2019-05-16T14:35:39.889Z,12.11
2019-05-16T14:38:08.909Z,12.16
2019-05-16T14:40:37.666Z,12.09
2019-05-16T14:43:09.444Z,12.12
2019-05-16T14:45:38.140Z,12.06
2019-05-16T14:48:07.598Z,12.04
2019-05-16T14:50:37.573Z,12.01
2019-05-16T14:53:07.313Z,12.03
2019-05-16T14:55:39.752Z,12.07
2019-05-16T14:58:08.461Z,12.16
2019-05-16T15:00:38.377Z,12.17
2019-05-16T15:03:08.189Z,12.39
2019-05-16T15:05:42.445Z,12.38
2019-05-16T15:08:08.713Z,12.23
2019-05-16T15:10:37.796Z,12.43
2019-05-16T15:13:07.850Z,12.43
2019-05-16T15:15:37.599Z,12.57
2019-05-16T15:18:08.212Z,12.40
2019-05-16T15:20:37.200Z,12.42
2019-05-16T15:23:07.662Z,12.54
2019-05-16T15:25:37.468Z,12.58
2019-05-16T15:28:07.651Z,12.63
2019-05-16T15:30:38.981Z,12.78
2019-05-16T15:33:08.672Z,13.04
2019-05-16T15:35:38.281Z,12.88
2019-05-16T15:38:08.066Z,12.86
2019-05-16T15:40:37.802Z,12.97
2019-05-16T15:43:08.154Z,12.73
2019-05-16T15:45:48.195Z,12.70
2019-05-16T15:48:17.017Z,12.74
2019-05-16T15:50:44.641Z,12.66
2019-05-16T15:53:13.367Z,12.51
2019-05-16T15:55:42.301Z,12.36
2019-05-16T15:58:11.055Z,12.50
2019-05-16T16:00:42.111Z,12.35
2019-05-16T16:03:10.862Z,12.35
2019-05-16T16:05:39.556Z,12.21
2019-05-16T16:08:08.398Z,12.35
2019-05-16T16:10:39.364Z,12.21
2019-05-16T16:13:08.702Z,12.13
2019-05-16T16:15:50.304Z,12.04
2019-05-16T16:18:09.239Z,12.16
2019-05-16T16:20:38.487Z,11.98
2019-05-16T16:23:07.256Z,11.83
2019-05-16T16:25:37.512Z,11.87
2019-05-16T16:28:09.156Z,11.79
2019-05-16T16:30:37.920Z,11.80
2019-05-16T16:33:21.321Z,11.78
2019-05-16T16:35:38.030Z,11.79
2019-05-16T16:38:07.233Z,11.79
2019-05-16T16:40:37.698Z,11.79
2019-05-16T16:43:08.019Z,11.74
2019-05-16T16:45:36.901Z,11.69
2019-05-16T16:48:07.941Z,11.70
2019-05-16T16:50:39.269Z,11.68
2019-05-16T16:53:07.989Z,11.64
2019-05-16T16:55:37.130Z,11.58
2019-05-16T16:58:09.640Z,11.75
2019-05-16T17:00:38.220Z,11.69
2019-05-16T17:03:10.347Z,11.65
2019-05-16T17:05:37.446Z,11.80
2019-05-16T17:08:09.210Z,11.83
2019-05-16T17:10:38.338Z,11.83
2019-05-16T17:13:07.187Z,11.67
2019-05-16T17:15:36.784Z,11.64
2019-05-16T17:18:06.959Z,11.59
2019-05-16T17:20:37.585Z,11.59
2019-05-16T17:23:09.140Z,11.77
2019-05-16T17:25:38.171Z,11.67
2019-05-16T17:28:07.286Z,11.66
2019-05-16T17:30:37.665Z,11.53
2019-05-16T17:33:07.621Z,11.54
2019-05-16T17:35:39.010Z,11.45
2019-05-16T17:38:07.207Z,11.54
2019-05-16T17:40:38.409Z,11.53
2019-05-16T17:43:07.711Z,11.49
2019-05-16T17:45:37.564Z,11.38
2019-05-16T17:48:29.597Z,11.43
2019-05-16T17:50:57.124Z,11.47
2019-05-16T17:53:26.665Z,11.50
2019-05-16T17:55:57.295Z,11.33
2019-05-16T17:58:27.063Z,11.28
2019-05-16T18:01:00.008Z,11.31
2019-05-16T18:03:26.554Z,11.29
2019-05-16T18:05:56.712Z,11.21
2019-05-16T18:08:25.614Z,11.15
2019-05-16T18:10:56.561Z,11.18
2019-05-16T18:13:25.182Z,11.10
2019-05-16T18:15:56.690Z,11.08
2019-05-16T18:18:26.882Z,11.02
2019-05-16T18:21:01.552Z,10.98
2019-05-16T18:23:27.480Z,11.01
2019-05-16T18:25:57.567Z,10.99
2019-05-16T18:28:26.843Z,10.99
2019-05-16T18:30:56.624Z,10.99
2019-05-16T18:33:27.580Z,10.93
2019-05-16T18:35:57.944Z,10.89
2019-05-16T18:38:26.589Z,10.92
2019-05-16T18:40:56.580Z,10.91
2019-05-16T18:43:27.143Z,10.99
2019-05-16T18:45:56.637Z,10.97
2019-05-16T18:48:27.251Z,10.83
2019-05-16T18:50:57.627Z,10.81
2019-05-16T18:53:27.103Z,10.78
2019-05-16T18:55:57.067Z,10.72
2019-05-16T18:58:26.970Z,10.64
2019-05-16T19:00:55.893Z,10.60
2019-05-16T19:03:26.855Z,10.60
2019-05-16T19:05:57.152Z,10.49
2019-05-16T19:08:27.094Z,10.46
2019-05-16T19:10:56.885Z,10.23
2019-05-16T19:13:27.763Z,9.97
2019-05-16T19:15:57.265Z,9.73
2019-05-16T19:18:26.390Z,9.61
2019-05-16T19:20:57.091Z,9.43
2019-05-16T19:23:26.907Z,9.43
2019-05-16T19:25:56.961Z,9.29
2019-05-16T19:28:28.354Z,9.20
2019-05-16T19:30:57.268Z,9.17
2019-05-16T19:33:26.176Z,9.01
2019-05-16T19:35:56.538Z,8.90
2019-05-16T19:38:26.516Z,8.86
2019-05-16T19:40:57.565Z,8.81
2019-05-16T19:43:26.656Z,8.71
2019-05-16T19:45:57.248Z,8.63
2019-05-16T19:48:26.730Z,8.62
2019-05-16T19:50:56.897Z,8.60
2019-05-16T19:53:27.117Z,8.58
2019-05-16T19:55:56.697Z,8.57
2019-05-16T19:58:26.725Z,8.64
2019-05-16T20:00:57.257Z,8.59
2019-05-16T20:03:27.249Z,8.52
2019-05-16T20:05:56.997Z,8.53
2019-05-16T20:08:26.954Z,8.47
2019-05-16T20:10:55.905Z,8.55
2019-05-16T20:13:24.619Z,8.48
2019-05-16T20:15:53.739Z,8.35
2019-05-16T20:18:22.861Z,8.26
2019-05-16T20:20:51.573Z,8.18
2019-05-16T20:23:20.281Z,8.09
2019-05-16T20:25:48.995Z,8.03
2019-05-16T20:28:18.407Z,7.99
2019-05-16T20:30:47.673Z,8.09
2019-05-16T20:33:17.982Z,8.12
2019-05-16T20:35:47.341Z,8.15
2019-05-16T20:38:17.333Z,8.10
2019-05-16T20:40:46.705Z,8.07
2019-05-16T20:43:16.831Z,8.01
2019-05-16T20:45:47.678Z,7.93
2019-05-16T20:48:18.521Z,7.84
2019-05-16T20:50:49.138Z,7.78
2019-05-16T20:53:17.758Z,7.82
2019-05-16T20:55:49.636Z,8.10
2019-05-16T20:58:16.932Z,8.23
2019-05-16T21:00:46.998Z,8.14
2019-05-16T21:03:16.543Z,8.17
2019-05-16T21:05:48.077Z,8.16
2019-05-16T21:08:17.236Z,7.96
2019-05-16T21:10:46.472Z,8.09
2019-05-16T21:13:17.154Z,8.05
2019-05-16T21:15:47.687Z,7.88
2019-05-16T21:18:16.682Z,7.67
2019-05-16T21:20:46.990Z,7.57
2019-05-16T21:23:16.658Z,7.57
2019-05-16T21:25:46.783Z,7.49
2019-05-16T21:28:19.466Z,7.61
2019-05-16T21:30:47.409Z,7.48
2019-05-16T21:33:18.703Z,7.32
2019-05-16T21:35:47.135Z,7.30
2019-05-16T21:38:16.675Z,7.37
2019-05-16T21:40:45.486Z,7.15
2019-05-16T21:43:16.654Z,6.97
2019-05-16T21:45:47.280Z,7.02
2019-05-16T21:48:16.328Z,6.97
2019-05-16T21:50:46.361Z,7.02
2019-05-16T21:53:17.569Z,6.88
2019-05-16T21:55:47.223Z,6.96
2019-05-16T21:58:16.122Z,7.04
2019-05-16T22:00:47.650Z,6.82
2019-05-16T22:03:16.731Z,6.68
2019-05-16T22:05:46.564Z,6.57
2019-05-16T22:08:16.835Z,6.51
2019-05-16T22:10:46.750Z,6.42
2019-05-16T22:13:15.510Z,6.34
2019-05-16T22:15:46.410Z,6.30
2019-05-16T22:18:16.629Z,6.23
2019-05-16T22:20:49.039Z,6.18
2019-05-16T22:23:17.387Z,6.14
2019-05-16T22:25:48.963Z,6.21
2019-05-16T22:28:17.211Z,6.18
2019-05-16T22:30:46.169Z,6.32
2019-05-16T22:33:14.778Z,6.32
2019-05-16T22:35:43.497Z,6.26
2019-05-16T22:38:12.307Z,6.24
2019-05-16T22:40:41.018Z,6.22
2019-05-16T22:43:10.241Z,6.19
2019-05-16T22:45:39.670Z,6.19
2019-05-16T22:48:08.802Z,6.07
2019-05-16T22:50:37.514Z,6.10
2019-05-16T22:53:09.162Z,6.10
2019-05-16T22:55:37.920Z,6.12
2019-05-16T22:58:07.462Z,6.18
2019-05-16T23:00:41.302Z,6.16
2019-05-16T23:03:09.449Z,6.15
2019-05-16T23:05:38.119Z,6.15
2019-05-16T23:08:09.738Z,6.19
2019-05-16T23:10:37.392Z,6.27
2019-05-16T23:13:07.548Z,6.29
2019-05-16T23:15:37.189Z,6.40
2019-05-16T23:18:07.332Z,6.28
2019-05-16T23:20:37.505Z,6.23
2019-05-16T23:23:09.101Z,6.08
2019-05-16T23:25:37.763Z,5.99
2019-05-16T23:28:07.742Z,5.94
2019-05-16T23:30:36.951Z,5.94
2019-05-16T23:33:07.221Z,5.99
2019-05-16T23:35:39.358Z,6.17
2019-05-16T23:38:18.631Z,6.24
2019-05-16T23:40:38.547Z,6.24
2019-05-16T23:43:07.824Z,6.33
2019-05-16T23:45:37.571Z,6.39
2019-05-16T23:48:10.416Z,6.42
2019-05-16T23:50:36.968Z,6.46
2019-05-16T23:53:07.264Z,6.55
2019-05-16T23:55:39.440Z,6.68
2019-05-16T23:58:08.264Z,6.74
